Terminal Aerodrome Forecast
Issued by NWS

Home | Current Version | Previous Version | Text Only | Print | Product List | Glossary Off
Versions: 1 2 3 4 5 6 7 8 9 10 11 12 13 14 15 16 17

092
FTUS43 KMPX 240531
TAFAXN
TAF
KAXN 240531Z 2406/2506 VRB03KT P6SM SKC
     FM240900 VRB03KT 3SM BR SKC
      TEMPO 2409/2412 1/4SM FG
     FM241500 13007KT P6SM SCT008 BKN015 OVC100
     FM242100 10011KT 1/2SM SN FG OVC007
     FM250300 24005KT 1/2SM SN FG OVC003=

USA.gov is the U.S. government's official web portal to all federal, state and local government web resources and services.